Small, Idaho
Current Conditions -  °F | °C
As of 9:53 AM on Thursday 23 Oct 2014 (Local Time) from KRXE Reporting Station
Broken Clouds Broken Clouds  
Wind Chill: 47°   Ceiling: 12000
Heat Index: 47°   Visibility: 10mi
Dew Point: 33°   Wind: 3mph
Humidity: 59%   Direction: NA
Pressure: 30.12"   Gusts: NA
Location:  44.2396°N, 112.579°W
Report Text: KRXE 231553Z AUTO VRB03KT 10SM BKN120 08/01 A3012 RMK AO2 SLP204 T00830006
Loading
Personal Weather Stations






























Interactive Weather Map
Tropical Storm Tracking
New forecast layout! Learn more

10-Day Weather Forecast

Advertisements
Track Severe Weather on mobile